ANF weather

Andrés Sabella Gálvez International Airport
Antofagasta, Antofagasta Region, Chile

Public forecast

Using degrees Celsius for public forecast. Weather courtesy of forecast.io.

Current aviation weather report (METAR) for Andrés Sabella Gálvez International Airport

Retrieved 2020/02/24 20:00 UTC (55 minutes ago):

SCFA 242000Z 20013KT 9999 FEW016 21/17 Q1013 NOSIG

Aviation forecast (TAF) for Andrés Sabella Gálvez International Airport

Retrieved 2020/02/24 18:00 UTC (3 hours ago):

TAF SCFA 241632Z 2418/2518 21012KT CAVOK TX23/2418Z TN19/2508Z BECMG 2501/2503 17004KT BECMG 2504/2506 BKN020 BECMG 2510/2512 FEW020 BECMG 2514/2516 21012KT